createdAt,value
2022-12-03T02:21:33.150Z,46.25
2022-12-03T02:22:12.876Z,38.53
2022-12-03T02:22:56.957Z,26.75
2022-12-03T02:23:33.966Z,33.75
2022-12-03T02:24:12.222Z,26.25
2022-12-03T02:24:55.520Z,22.98
2022-12-03T02:25:32.800Z,18.13
2022-12-03T02:26:07.685Z,24.08
2022-12-03T02:26:39.785Z,17.88
2022-12-03T02:27:12.047Z,27.58
2022-12-03T02:27:47.295Z,29.05
2022-12-03T02:28:19.406Z,22.50
2022-12-03T02:28:51.594Z,14.85
2022-12-03T02:29:24.305Z,17.52
2022-12-03T02:29:59.410Z,19.60
2022-12-03T02:30:32.703Z,12.90
2022-12-03T02:31:05.426Z,19.55
2022-12-03T02:31:40.348Z,15.25
2022-12-03T02:32:12.460Z,20.42
2022-12-03T02:32:45.024Z,16.60
2022-12-03T02:33:19.801Z,18.17
2022-12-03T02:33:51.931Z,26.33
2022-12-03T02:34:35.759Z,30.35
2022-12-03T02:35:17.071Z,18.20
2022-12-03T02:35:49.597Z,26.50
2022-12-03T02:36:21.846Z,22.98
2022-12-03T02:36:53.949Z,18.13
2022-12-03T02:37:33.533Z,18.75
2022-12-03T02:38:12.380Z,16.60
2022-12-03T02:38:45.721Z,20.85
2022-12-03T02:39:20.449Z,18.23
2022-12-03T02:39:54.966Z,15.80
2022-12-03T02:40:33.180Z,34.05
2022-12-03T02:41:11.181Z,20.63
2022-12-03T02:41:58.317Z,21.15
2022-12-03T02:42:36.545Z,19.85
2022-12-03T02:43:09.812Z,18.63
2022-12-03T02:43:41.897Z,19.48
2022-12-03T02:44:14.238Z,24.52
2022-12-03T02:44:46.421Z,26.08
2022-12-03T02:45:26.638Z,15.05
2022-12-03T02:46:01.829Z,23.00
2022-12-03T02:46:34.428Z,21.25
2022-12-03T02:47:09.330Z,17.55
2022-12-03T02:47:44.558Z,21.60
2022-12-03T02:48:22.418Z,22.65
2022-12-03T02:48:54.566Z,18.30
2022-12-03T02:49:26.733Z,29.05
2022-12-03T02:50:02.739Z,26.10
2022-12-03T02:50:38.068Z,24.65
2022-12-03T02:51:14.021Z,24.83
2022-12-03T02:51:46.161Z,16.85
2022-12-03T02:52:18.696Z,18.95
2022-12-03T02:52:55.805Z,28.42
2022-12-03T02:53:30.958Z,31.35
2022-12-03T02:54:04.236Z,21.75
2022-12-03T02:54:39.190Z,23.52
2022-12-03T02:55:13.004Z,23.02
2022-12-03T02:55:48.750Z,20.98
2022-12-03T02:56:28.983Z,31.90
2022-12-03T02:57:01.378Z,22.33
2022-12-03T02:57:35.015Z,23.67
2022-12-03T02:58:09.954Z,19.67
2022-12-03T02:58:44.344Z,23.08
2022-12-03T02:59:16.463Z,18.08
2022-12-03T02:59:51.211Z,25.05
2022-12-03T03:00:23.444Z,21.90
2022-12-03T03:00:58.985Z,16.77
2022-12-03T03:01:31.397Z,25.30
2022-12-03T03:02:04.072Z,16.70
2022-12-03T03:02:39.350Z,22.02
2022-12-03T03:03:11.818Z,15.32
2022-12-03T03:03:46.401Z,20.17
2022-12-03T03:04:22.469Z,29.95
2022-12-03T03:04:55.486Z,14.13
2022-12-03T03:05:27.955Z,18.33
2022-12-03T03:06:04.844Z,24.20
2022-12-03T03:06:36.965Z,27.75
2022-12-03T03:07:09.770Z,21.15
2022-12-03T03:07:45.336Z,26.05
2022-12-03T03:08:18.975Z,23.70
2022-12-03T03:08:51.473Z,18.15
2022-12-03T03:09:26.217Z,17.42
2022-12-03T03:09:59.119Z,18.98
2022-12-03T03:10:35.180Z,27.27
2022-12-03T03:11:12.685Z,26.33
2022-12-03T03:11:44.799Z,19.50
2022-12-03T03:12:17.096Z,27.00
2022-12-03T03:12:52.625Z,22.08
2022-12-03T03:13:24.891Z,18.40
2022-12-03T03:13:57.044Z,19.63
2022-12-03T03:14:31.793Z,22.65
2022-12-03T03:15:05.291Z,22.10
2022-12-03T03:15:38.874Z,19.73
2022-12-03T03:16:13.664Z,24.88
2022-12-03T03:16:46.134Z,22.42
2022-12-03T03:17:18.314Z,17.45
2022-12-03T03:17:53.275Z,23.08
2022-12-03T03:18:25.604Z,20.25
2022-12-03T03:18:57.700Z,19.08
2022-12-03T03:19:33.046Z,23.08
2022-12-03T03:20:07.491Z,17.40
2022-12-03T03:20:40.627Z,14.80
2022-12-03T03:21:15.917Z,22.85
2022-12-03T03:21:48.032Z,22.42
2022-12-03T03:22:22.818Z,37.88
2022-12-03T03:22:55.241Z,30.70
2022-12-03T03:23:27.438Z,23.23
2022-12-03T03:24:02.136Z,18.08
2022-12-03T03:24:34.289Z,32.78
2022-12-03T03:25:09.368Z,20.38
2022-12-03T03:25:46.612Z,18.70
2022-12-03T03:26:21.376Z,20.67
2022-12-03T03:26:54.590Z,19.15
2022-12-03T03:27:30.040Z,16.25
2022-12-03T03:28:02.274Z,20.08
2022-12-03T03:28:38.085Z,21.20
2022-12-03T03:29:12.947Z,20.45
2022-12-03T03:29:45.076Z,22.23
2022-12-03T03:30:17.357Z,21.10
2022-12-03T03:30:52.094Z,17.75
2022-12-03T03:31:24.614Z,21.75
2022-12-03T03:31:58.000Z,20.52
2022-12-03T03:32:33.330Z,24.77
2022-12-03T03:33:06.002Z,23.05
2022-12-03T03:33:40.399Z,28.70
2022-12-03T03:34:15.752Z,21.83
2022-12-03T03:34:47.996Z,21.83
2022-12-03T03:35:20.506Z,20.25
2022-12-03T03:35:56.276Z,16.20
2022-12-03T03:36:28.430Z,21.52
2022-12-03T03:37:00.610Z,22.23
2022-12-03T03:37:35.598Z,18.33
2022-12-03T03:38:09.052Z,18.55
2022-12-03T03:38:41.948Z,22.65
2022-12-03T03:39:17.325Z,18.63
2022-12-03T03:39:49.729Z,25.77
2022-12-03T03:40:22.357Z,27.20
2022-12-03T03:40:57.193Z,34.63
2022-12-03T03:41:33.817Z,25.23
2022-12-03T03:42:06.045Z,21.13
2022-12-03T03:42:41.678Z,20.92
2022-12-03T03:43:14.296Z,27.20
2022-12-03T03:43:48.660Z,22.02
2022-12-03T03:44:23.507Z,20.48
2022-12-03T03:44:55.832Z,22.63
2022-12-03T03:45:29.643Z,19.58
2022-12-03T03:46:06.331Z,20.50
2022-12-03T03:46:39.705Z,20.08
2022-12-03T03:47:12.976Z,19.10
2022-12-03T03:47:48.234Z,24.80
2022-12-03T03:48:21.253Z,20.90
2022-12-03T03:48:53.529Z,17.10
2022-12-03T03:49:28.787Z,17.05
2022-12-03T03:50:01.396Z,21.65
2022-12-03T03:50:34.086Z,21.55
2022-12-03T03:51:09.821Z,21.83
2022-12-03T03:51:42.017Z,29.00
2022-12-03T03:52:14.287Z,18.92
2022-12-03T03:52:49.810Z,38.10
2022-12-03T03:53:23.319Z,18.10
2022-12-03T03:53:56.114Z,19.05
2022-12-03T03:54:31.816Z,29.23
2022-12-03T03:55:04.566Z,28.40
2022-12-03T03:55:36.801Z,15.48
2022-12-03T03:56:12.438Z,22.13
2022-12-03T03:56:47.142Z,25.60
2022-12-03T03:57:19.231Z,26.45
2022-12-03T03:57:54.112Z,26.23
2022-12-03T03:58:26.329Z,24.88
2022-12-03T03:59:01.418Z,20.42
2022-12-03T03:59:33.681Z,24.50
2022-12-03T04:00:08.463Z,26.27
2022-12-03T04:00:46.784Z,33.13
2022-12-03T04:01:19.123Z,51.58
2022-12-03T04:01:52.050Z,21.35
2022-12-03T04:02:29.070Z,23.58
2022-12-03T04:03:01.213Z,29.70
2022-12-03T04:03:34.331Z,17.73
2022-12-03T04:04:17.268Z,25.15
2022-12-03T04:04:50.123Z,31.67
2022-12-03T04:05:24.139Z,38.53
2022-12-03T04:05:58.893Z,20.85
2022-12-03T04:06:30.957Z,24.55
2022-12-03T04:07:03.058Z,28.13
2022-12-03T04:07:37.816Z,26.30
2022-12-03T04:08:10.098Z,27.52
2022-12-03T04:08:42.383Z,24.00
2022-12-03T04:09:17.380Z,22.33
2022-12-03T04:09:49.500Z,22.45
2022-12-03T04:10:36.630Z,21.80
2022-12-03T04:11:23.752Z,17.83
2022-12-03T04:12:13.496Z,20.50
2022-12-03T04:12:57.238Z,22.20
2022-12-03T04:13:31.957Z,22.30
2022-12-03T04:14:04.104Z,36.25
2022-12-03T04:14:36.232Z,27.17
2022-12-03T04:15:12.254Z,27.27
2022-12-03T04:15:44.378Z,20.02
2022-12-03T04:16:16.637Z,35.42
2022-12-03T04:16:51.423Z,18.08
2022-12-03T04:17:23.680Z,24.55
2022-12-03T04:18:10.712Z,13.70
2022-12-03T04:18:45.428Z,25.65
2022-12-03T04:19:20.159Z,20.50
2022-12-03T04:19:52.498Z,22.98
2022-12-03T04:20:24.643Z,14.02
2022-12-03T04:21:19.646Z,23.92
2022-12-03T04:22:06.761Z,12.40
2022-12-03T04:22:41.517Z,28.48
2022-12-03T04:23:13.607Z,22.17
2022-12-03T04:23:45.814Z,16.83
2022-12-03T04:24:20.598Z,30.25
2022-12-03T04:25:12.692Z,18.27
2022-12-03T04:26:11.749Z,22.40
2022-12-03T04:26:58.907Z,21.10
2022-12-03T04:27:48.612Z,26.40
2022-12-03T04:28:35.820Z,32.17
2022-12-03T04:29:08.232Z,24.23
2022-12-03T04:29:42.915Z,30.15
2022-12-03T04:30:15.797Z,31.05
2022-12-03T04:30:47.872Z,26.58
2022-12-03T04:31:35.025Z,37.28
2022-12-03T04:32:22.127Z,21.92
2022-12-03T04:33:09.220Z,21.35
2022-12-03T04:33:56.315Z,24.10
2022-12-03T04:34:43.877Z,26.58
2022-12-03T04:35:31.130Z,46.03
2022-12-03T04:36:05.998Z,22.27
2022-12-03T04:36:38.516Z,36.40
2022-12-03T04:37:12.167Z,24.30
2022-12-03T04:37:46.885Z,21.45
2022-12-03T04:38:19.181Z,29.35
2022-12-03T04:38:51.258Z,27.00
2022-12-03T04:39:23.360Z,28.90
2022-12-03T04:39:58.180Z,21.27
2022-12-03T04:40:45.283Z,18.50
2022-12-03T04:41:17.330Z,22.08
2022-12-03T04:41:49.459Z,19.50
2022-12-03T04:42:24.338Z,25.67
2022-12-03T04:42:58.976Z,18.58
2022-12-03T04:43:32.542Z,26.88
2022-12-03T04:44:19.825Z,24.25
2022-12-03T04:44:54.723Z,20.17
2022-12-03T04:45:27.080Z,25.40
2022-12-03T04:45:59.406Z,21.67
2022-12-03T04:46:31.628Z,22.13
2022-12-03T04:47:10.226Z,14.40
2022-12-03T04:47:42.353Z,24.13
2022-12-03T04:48:14.434Z,22.42
2022-12-03T04:48:46.521Z,26.17
2022-12-03T04:49:21.178Z,23.02
2022-12-03T04:49:53.287Z,31.23
2022-12-03T04:50:27.981Z,22.30
2022-12-03T04:51:00.121Z,27.30
2022-12-03T04:51:32.206Z,20.10
2022-12-03T04:52:07.567Z,23.02
2022-12-03T04:52:39.661Z,21.95
2022-12-03T04:53:13.024Z,15.02
2022-12-03T04:53:47.657Z,19.95
2022-12-03T04:54:19.750Z,18.65
2022-12-03T04:54:54.621Z,19.80
2022-12-03T04:55:26.878Z,21.13
2022-12-03T04:55:58.957Z,18.40
2022-12-03T04:56:31.051Z,19.15
2022-12-03T04:57:06.481Z,33.50
2022-12-03T04:57:38.545Z,16.55
2022-12-03T04:58:13.254Z,30.85
2022-12-03T04:58:45.387Z,24.95
2022-12-03T04:59:20.054Z,22.27
2022-12-03T04:59:52.106Z,22.73
2022-12-03T05:00:24.496Z,24.73
2022-12-03T05:00:59.239Z,18.10
2022-12-03T05:01:31.444Z,20.95
2022-12-03T05:02:04.540Z,22.50
2022-12-03T05:02:40.702Z,28.77
2022-12-03T05:03:12.815Z,23.02
2022-12-03T05:03:44.907Z,31.95
2022-12-03T05:04:19.861Z,27.98
2022-12-03T05:04:52.361Z,21.10
2022-12-03T05:05:24.739Z,28.90
2022-12-03T05:05:59.397Z,28.15
2022-12-03T05:06:31.510Z,20.35
2022-12-03T05:07:06.729Z,19.33
2022-12-03T05:07:38.971Z,14.55
2022-12-03T05:08:11.155Z,27.70
2022-12-03T05:08:43.295Z,20.90
2022-12-03T05:09:17.958Z,21.77
2022-12-03T05:09:50.022Z,28.63
2022-12-03T05:10:22.096Z,32.70
2022-12-03T05:10:56.822Z,32.08
2022-12-03T05:11:28.900Z,36.58
2022-12-03T05:12:01.050Z,22.70
2022-12-03T05:12:35.884Z,28.90
2022-12-03T05:13:07.958Z,23.15
2022-12-03T05:13:43.176Z,25.25
2022-12-03T05:14:18.198Z,20.42
2022-12-03T05:14:50.263Z,25.67
2022-12-03T05:15:22.355Z,22.52
2022-12-03T05:15:54.494Z,22.85
2022-12-03T05:16:29.271Z,25.00
2022-12-03T05:17:01.548Z,23.83
2022-12-03T05:17:33.879Z,39.13
2022-12-03T05:18:08.654Z,64.82
2022-12-03T05:18:40.720Z,36.30
2022-12-03T05:19:12.781Z,41.28
2022-12-03T05:19:59.922Z,28.42
2022-12-03T05:20:49.827Z,37.88
2022-12-03T05:21:28.004Z,35.22
2022-12-03T05:22:00.146Z,25.02
2022-12-03T05:22:32.231Z,33.90
2022-12-03T05:23:04.359Z,28.98
2022-12-03T05:23:39.069Z,25.75
2022-12-03T05:24:11.150Z,21.10
2022-12-03T05:24:43.223Z,26.65
2022-12-03T05:25:15.372Z,36.67
2022-12-03T05:25:50.115Z,29.98
2022-12-03T05:26:22.241Z,24.83
2022-12-03T05:26:57.039Z,26.67
2022-12-03T05:27:29.222Z,30.38
2022-12-03T05:28:01.274Z,29.85
2022-12-03T05:28:36.106Z,32.65
2022-12-03T05:29:10.765Z,29.48
2022-12-03T05:29:42.828Z,15.63
2022-12-03T05:30:17.857Z,28.55
2022-12-03T05:30:50.191Z,25.10
2022-12-03T05:31:22.420Z,38.40
2022-12-03T05:31:57.134Z,20.45
2022-12-03T05:32:29.304Z,49.85
2022-12-03T05:33:01.575Z,78.85
2022-12-03T05:33:33.773Z,69.65
2022-12-03T05:34:08.527Z,26.50
2022-12-03T05:34:40.609Z,32.25
2022-12-03T05:35:12.730Z,33.20
2022-12-03T05:35:44.845Z,34.42
2022-12-03T05:36:19.525Z,35.50
2022-12-03T05:36:51.585Z,31.40
2022-12-03T05:37:23.668Z,31.15
2022-12-03T05:37:55.732Z,24.23
2022-12-03T05:38:30.416Z,11.13
2022-12-03T05:39:02.538Z,27.13
2022-12-03T05:39:34.793Z,41.85
2022-12-03T05:40:11.017Z,37.28
2022-12-03T05:40:43.106Z,43.20
2022-12-03T05:41:30.215Z,38.47
2022-12-03T05:42:17.394Z,64.03
2022-12-03T05:42:56.791Z,28.55
2022-12-03T05:43:31.532Z,39.53
2022-12-03T05:44:03.608Z,41.55
2022-12-03T05:44:38.421Z,22.58
2022-12-03T05:45:13.524Z,28.85
2022-12-03T05:45:45.698Z,21.05
2022-12-03T05:46:18.056Z,36.15
2022-12-03T05:46:52.722Z,29.88
2022-12-03T05:47:24.898Z,25.13
2022-12-03T05:47:58.759Z,27.85
2022-12-03T05:48:33.469Z,26.30
2022-12-03T05:49:05.556Z,55.33
2022-12-03T05:49:37.638Z,36.20
2022-12-03T05:50:12.847Z,32.30
2022-12-03T05:50:46.448Z,38.72
2022-12-03T05:51:23.657Z,44.50
2022-12-03T05:51:58.680Z,35.78
2022-12-03T05:52:31.054Z,34.67
2022-12-03T05:53:05.770Z,36.63
2022-12-03T05:53:37.904Z,22.83
2022-12-03T05:54:10.134Z,30.10
2022-12-03T05:54:44.870Z,26.42
2022-12-03T05:55:18.073Z,22.00
2022-12-03T05:55:50.137Z,24.27
2022-12-03T05:56:24.826Z,38.75
2022-12-03T05:56:56.892Z,26.25
2022-12-03T05:57:29.046Z,35.63
2022-12-03T05:58:03.757Z,27.33
2022-12-03T05:58:36.204Z,30.05
2022-12-03T05:59:08.270Z,55.03
2022-12-03T05:59:45.518Z,53.22
2022-12-03T06:00:21.068Z,46.00
2022-12-03T06:00:55.750Z,51.58
2022-12-03T06:01:27.811Z,41.80
2022-12-03T06:01:59.915Z,40.65
2022-12-03T06:02:32.443Z,29.95
2022-12-03T06:03:09.123Z,47.08
2022-12-03T06:03:41.411Z,35.10
2022-12-03T06:04:13.599Z,59.05
2022-12-03T06:04:48.291Z,35.65
2022-12-03T06:05:21.120Z,27.58
2022-12-03T06:05:53.299Z,60.78
2022-12-03T06:06:28.033Z,37.70
2022-12-03T06:07:00.179Z,46.47
2022-12-03T06:07:32.437Z,60.17
2022-12-03T06:08:07.690Z,27.05
2022-12-03T06:08:39.927Z,37.40
2022-12-03T06:09:12.073Z,33.50
2022-12-03T06:09:46.748Z,49.95
2022-12-03T06:10:22.571Z,31.75
2022-12-03T06:10:54.637Z,46.13
2022-12-03T06:11:30.037Z,33.17
2022-12-03T06:12:02.219Z,33.30
2022-12-03T06:12:34.547Z,35.45
2022-12-03T06:13:09.233Z,35.15
2022-12-03T06:13:41.326Z,39.03
2022-12-03T06:14:13.423Z,69.30
2022-12-03T06:14:50.724Z,51.33
2022-12-03T06:15:23.109Z,44.75
2022-12-03T06:15:55.206Z,48.70
2022-12-03T06:16:30.039Z,52.53
2022-12-03T06:17:02.461Z,35.88
2022-12-03T06:17:34.629Z,49.33
2022-12-03T06:18:06.697Z,30.05
2022-12-03T06:18:41.396Z,43.47
2022-12-03T06:19:13.461Z,41.95
2022-12-03T06:19:45.575Z,37.47
2022-12-03T06:20:22.380Z,40.00
2022-12-03T06:20:54.472Z,48.17
2022-12-03T06:21:26.608Z,46.63
2022-12-03T06:21:58.728Z,47.80
2022-12-03T06:22:33.532Z,57.88
2022-12-03T06:23:05.659Z,53.17
2022-12-03T06:23:44.758Z,47.88
2022-12-03T06:24:17.022Z,58.60
2022-12-03T06:24:49.204Z,40.28
2022-12-03T06:25:23.937Z,57.90
2022-12-03T06:25:56.025Z,44.70
2022-12-03T06:26:30.726Z,37.45
2022-12-03T06:27:02.803Z,58.83
2022-12-03T06:27:34.875Z,54.38
2022-12-03T06:28:09.812Z,53.08
2022-12-03T06:28:46.388Z,46.10
2022-12-03T06:29:18.507Z,43.25
2022-12-03T06:29:55.891Z,55.75
2022-12-03T06:30:28.053Z,35.25
2022-12-03T06:31:00.197Z,56.85
2022-12-03T06:31:34.963Z,47.75
2022-12-03T06:32:07.904Z,55.80
2022-12-03T06:32:42.736Z,55.30
2022-12-03T06:33:14.821Z,55.70
2022-12-03T06:33:46.905Z,69.32
2022-12-03T06:34:21.700Z,45.67
2022-12-03T06:34:54.103Z,69.13
2022-12-03T06:35:26.397Z,53.72
2022-12-03T06:36:01.279Z,38.45
2022-12-03T06:36:33.363Z,45.95
2022-12-03T06:37:05.444Z,158.20
2022-12-03T06:37:40.143Z,48.50
2022-12-03T06:38:12.292Z,46.05
2022-12-03T06:38:44.412Z,43.58
2022-12-03T06:39:19.151Z,42.25
2022-12-03T06:39:51.372Z,55.50
2022-12-03T06:40:24.635Z,67.43
2022-12-03T06:40:59.305Z,47.53
2022-12-03T06:41:31.387Z,53.28
2022-12-03T06:42:03.560Z,47.47
2022-12-03T06:42:38.234Z,37.25
2022-12-03T06:43:10.324Z,48.60
2022-12-03T06:43:42.424Z,65.78
2022-12-03T06:44:17.144Z,40.47
2022-12-03T06:44:49.306Z,96.50
2022-12-03T06:45:26.638Z,57.65
2022-12-03T06:45:58.749Z,46.55
2022-12-03T06:46:30.933Z,64.38
2022-12-03T06:47:05.693Z,42.15
2022-12-03T06:47:37.882Z,46.75
2022-12-03T06:48:09.943Z,42.33
2022-12-03T06:48:44.606Z,39.50
2022-12-03T06:49:16.729Z,50.53
2022-12-03T06:49:51.414Z,50.15
2022-12-03T06:50:23.608Z,53.38
2022-12-03T06:50:55.746Z,96.68
2022-12-03T06:51:30.715Z,73.88
2022-12-03T06:52:02.855Z,61.40
2022-12-03T06:52:37.997Z,70.47
2022-12-03T06:53:10.081Z,60.30
2022-12-03T06:53:42.173Z,51.92
2022-12-03T06:54:14.264Z,60.35
2022-12-03T06:54:48.926Z,74.15
2022-12-03T06:55:21.007Z,57.72
2022-12-03T06:55:53.117Z,49.33
2022-12-03T06:56:34.421Z,89.45
2022-12-03T06:57:08.105Z,45.63
2022-12-03T06:57:42.903Z,57.08
2022-12-03T06:58:14.992Z,54.22
2022-12-03T06:58:47.141Z,49.42
2022-12-03T06:59:21.950Z,43.97
2022-12-03T06:59:54.286Z,39.95
2022-12-03T07:00:31.711Z,67.90
2022-12-03T07:01:03.924Z,101.03
2022-12-03T07:01:36.031Z,34.08
2022-12-03T07:02:11.217Z,38.15
2022-12-03T07:02:44.769Z,68.70
2022-12-03T07:03:18.827Z,48.00
2022-12-03T07:03:53.521Z,57.53
2022-12-03T07:04:25.621Z,65.20
2022-12-03T07:04:58.024Z,41.47
2022-12-03T07:05:32.986Z,66.47
2022-12-03T07:06:05.411Z,63.20
2022-12-03T07:06:37.515Z,37.55
2022-12-03T07:07:12.230Z,33.55
2022-12-03T07:07:44.584Z,57.58
2022-12-03T07:08:16.759Z,93.53
2022-12-03T07:08:51.457Z,58.20
2022-12-03T07:09:23.885Z,53.53
2022-12-03T07:09:56.071Z,50.88
2022-12-03T07:10:30.849Z,40.15
2022-12-03T07:11:02.948Z,41.20
2022-12-03T07:11:40.543Z,35.08
2022-12-03T07:12:15.615Z,41.65
2022-12-03T07:12:47.726Z,45.33
2022-12-03T07:13:20.019Z,50.05
2022-12-03T07:13:52.102Z,56.42
2022-12-03T07:14:26.925Z,59.92
2022-12-03T07:14:59.205Z,48.58
2022-12-03T07:15:33.858Z,64.90
2022-12-03T07:16:09.715Z,52.85
2022-12-03T07:16:43.536Z,61.90
2022-12-03T07:17:18.324Z,33.53
2022-12-03T07:17:51.226Z,47.95
2022-12-03T07:18:23.303Z,41.67
2022-12-03T07:18:58.359Z,34.00
2022-12-03T07:19:32.856Z,55.42
2022-12-03T07:20:09.609Z,38.15
2022-12-03T07:20:41.717Z,56.67
2022-12-03T07:21:14.657Z,62.38
2022-12-03T07:21:49.385Z,47.33
2022-12-03T07:22:21.483Z,43.15
2022-12-03T07:22:56.233Z,60.17
2022-12-03T07:23:28.314Z,69.60
2022-12-03T07:24:03.104Z,69.43
2022-12-03T07:24:35.282Z,38.42
2022-12-03T07:25:11.571Z,36.78
2022-12-03T07:25:43.681Z,39.70
2022-12-03T07:26:15.946Z,57.90
2022-12-03T07:26:50.610Z,36.03
2022-12-03T07:27:22.710Z,63.05
2022-12-03T07:27:54.939Z,30.65
2022-12-03T07:28:29.617Z,65.35
2022-12-03T07:29:01.896Z,67.07
2022-12-03T07:29:33.983Z,52.95
2022-12-03T07:30:11.322Z,46.78
2022-12-03T07:30:46.040Z,45.17
2022-12-03T07:31:18.186Z,55.53
2022-12-03T07:31:53.300Z,39.60
2022-12-03T07:32:25.468Z,78.85
2022-12-03T07:32:57.522Z,65.55
2022-12-03T07:33:32.186Z,56.65
2022-12-03T07:34:04.275Z,46.45
2022-12-03T10:36:41.141Z,110.38
2022-12-03T10:37:16.416Z,114.43
2022-12-03T10:37:50.686Z,116.07
2022-12-03T10:38:26.642Z,96.15
2022-12-03T10:39:11.083Z,83.03
2022-12-03T10:40:05.437Z,71.57
2022-12-03T10:40:40.628Z,83.55
2022-12-03T10:41:29.389Z,71.93
2022-12-03T10:42:15.171Z,115.50
2022-12-03T10:42:49.811Z,80.75
2022-12-03T10:43:24.053Z,55.15
2022-12-03T10:44:15.333Z,75.68
2022-12-03T10:44:47.413Z,65.00
2022-12-03T10:45:24.345Z,60.30
2022-12-03T10:46:11.733Z,56.75
2022-12-03T10:46:47.108Z,55.10
2022-12-03T10:47:21.125Z,64.75
2022-12-03T10:48:05.499Z,57.10
2022-12-03T10:48:40.958Z,61.70
2022-12-03T10:49:17.451Z,67.70
2022-12-03T10:50:04.948Z,62.92
2022-12-03T10:50:38.391Z,79.70
2022-12-03T10:51:21.077Z,56.60
2022-12-03T10:51:55.822Z,56.80
2022-12-03T10:52:30.631Z,62.00
2022-12-03T10:53:03.421Z,64.75
2022-12-03T10:53:41.423Z,112.13
2022-12-03T10:54:20.387Z,71.57
2022-12-03T10:54:55.431Z,32.88
2022-12-03T10:55:29.118Z,46.65
2022-12-03T10:56:06.849Z,50.28
2022-12-03T10:56:39.102Z,49.53
2022-12-03T10:57:11.430Z,56.38
2022-12-03T10:57:47.151Z,76.00
2022-12-03T10:58:22.885Z,66.80
2022-12-03T10:58:58.053Z,90.97
2022-12-03T10:59:33.114Z,63.70
2022-12-03T11:00:09.940Z,59.75
2022-12-03T11:00:42.008Z,56.33
2022-12-03T11:01:17.344Z,49.17
2022-12-03T11:01:53.471Z,62.10
2022-12-03T11:02:26.586Z,68.05
2022-12-03T11:02:58.670Z,47.78
2022-12-03T11:03:38.645Z,76.78
2022-12-03T11:04:21.446Z,62.45
2022-12-03T11:04:57.698Z,71.80
2022-12-03T11:05:29.886Z,56.45
2022-12-03T11:06:02.979Z,96.72
2022-12-03T11:06:37.678Z,58.33
2022-12-03T11:07:17.526Z,61.10
2022-12-03T11:07:49.944Z,52.92
2022-12-03T11:08:26.854Z,70.22
2022-12-03T11:09:03.827Z,65.30
2022-12-03T11:09:41.767Z,65.50
2022-12-03T11:10:18.314Z,74.57
2022-12-03T11:11:01.142Z,59.53
2022-12-03T11:11:33.511Z,69.35
2022-12-03T11:12:10.546Z,92.82
2022-12-03T11:12:42.971Z,76.22
2022-12-03T11:13:47.123Z,53.08
2022-12-03T11:14:49.328Z,127.60
2022-12-03T11:15:45.587Z,50.05
2022-12-03T11:16:48.128Z,75.95
2022-12-03T11:17:44.384Z,55.97
2022-12-03T11:18:46.054Z,59.92
2022-12-03T11:19:21.805Z,57.38
2022-12-03T11:19:54.008Z,103.97
2022-12-03T11:21:07.691Z,88.55
2022-12-03T11:22:19.778Z,79.63
2022-12-03T11:22:58.376Z,89.32
2022-12-03T11:24:00.444Z,90.20
2022-12-03T11:24:37.137Z,110.32
2022-12-03T11:25:47.928Z,108.93
2022-12-03T11:26:57.627Z,51.88
2022-12-03T11:27:29.732Z,57.15
2022-12-03T11:28:34.804Z,89.43
2022-12-03T11:29:14.416Z,64.00
2022-12-03T11:29:59.789Z,51.88
2022-12-03T11:31:09.868Z,67.75
2022-12-03T11:31:43.887Z,63.97
2022-12-03T11:32:48.441Z,48.95
2022-12-03T11:33:22.333Z,78.25
2022-12-03T11:34:38.942Z,70.10
2022-12-03T11:35:12.322Z,98.72
2022-12-03T11:36:15.444Z,71.50
2022-12-03T11:37:17.430Z,53.53
2022-12-03T11:37:52.361Z,84.00
2022-12-03T11:38:52.326Z,64.22
2022-12-03T11:40:37.705Z,44.05
2022-12-03T11:41:12.998Z,70.53
2022-12-03T11:42:25.731Z,95.40
2022-12-03T11:42:57.885Z,96.57
2022-12-03T11:44:04.750Z,69.88
2022-12-03T11:44:36.962Z,72.03
2022-12-03T11:45:18.868Z,41.17
2022-12-03T11:45:53.687Z,56.40
2022-12-03T11:46:29.693Z,71.80
2022-12-03T11:47:15.345Z,114.30
2022-12-03T11:48:00.866Z,39.30
2022-12-03T11:48:33.118Z,72.30
2022-12-03T11:49:26.066Z,49.75
2022-12-03T11:49:58.302Z,85.32
2022-12-03T11:50:39.790Z,45.25
2022-12-03T11:51:14.630Z,79.43
2022-12-03T11:51:46.920Z,39.47
2022-12-03T11:52:32.445Z,63.08
2022-12-03T11:53:14.643Z,70.53
2022-12-03T11:53:53.995Z,68.00
2022-12-03T11:54:26.516Z,47.28
2022-12-03T11:55:05.530Z,64.18
2022-12-03T11:55:40.348Z,81.63
2022-12-03T11:56:20.302Z,41.22
2022-12-03T11:56:53.806Z,56.10
2022-12-03T11:57:33.215Z,62.72
2022-12-03T11:58:16.163Z,64.45
2022-12-03T11:58:48.800Z,62.58
2022-12-03T11:59:20.912Z,45.72
2022-12-03T12:00:10.331Z,65.03
2022-12-03T12:00:51.662Z,67.82
2022-12-03T12:01:38.833Z,86.47
2022-12-03T12:02:20.517Z,76.43
2022-12-03T12:02:57.313Z,52.38
2022-12-03T12:03:33.473Z,45.90
2022-12-03T12:04:07.088Z,45.83
2022-12-03T12:04:46.553Z,57.25
2022-12-03T12:05:28.726Z,48.90
2022-12-03T12:06:09.005Z,49.45
2022-12-03T12:06:42.728Z,60.60
2022-12-03T12:07:38.022Z,44.55
2022-12-03T12:08:19.740Z,50.95
2022-12-03T12:09:03.966Z,65.20
2022-12-03T12:09:50.808Z,70.85
2022-12-03T12:10:44.754Z,89.68
2022-12-03T12:11:18.450Z,73.45
2022-12-03T12:11:53.125Z,52.10
2022-12-03T12:12:31.280Z,61.13
2022-12-03T12:13:03.431Z,68.88
2022-12-03T12:13:59.532Z,60.45
2022-12-03T12:14:31.600Z,52.38
2022-12-03T12:15:34.906Z,60.50
2022-12-03T12:16:11.117Z,73.47
2022-12-03T12:16:51.455Z,53.53
2022-12-03T12:18:35.488Z,82.25
2022-12-03T12:19:35.722Z,58.78
2022-12-03T12:20:24.723Z,55.58
2022-12-03T12:21:19.481Z,59.28
2022-12-03T12:21:51.647Z,83.25
2022-12-03T12:22:33.622Z,65.78
2022-12-03T12:23:22.059Z,72.55
2022-12-03T12:24:00.414Z,61.55
2022-12-03T12:24:36.544Z,65.28
2022-12-03T12:25:42.389Z,50.08
2022-12-03T12:26:14.525Z,50.13
2022-12-03T12:26:50.735Z,54.95
2022-12-03T12:27:27.142Z,61.90
2022-12-03T12:27:59.235Z,63.33
2022-12-03T12:28:33.925Z,39.65
2022-12-03T12:29:06.000Z,33.17
2022-12-03T12:29:41.510Z,60.72
2022-12-03T12:30:17.997Z,60.75
2022-12-03T12:30:50.056Z,69.88
2022-12-03T12:31:23.096Z,50.70
2022-12-03T12:32:03.622Z,61.65
2022-12-03T12:32:44.459Z,58.72
2022-12-03T12:33:23.674Z,65.07
2022-12-03T12:33:55.797Z,67.90
2022-12-03T12:34:27.937Z,64.07
2022-12-03T12:35:05.759Z,115.75
2022-12-03T12:35:37.925Z,105.72
2022-12-03T12:36:10.757Z,60.60
2022-12-03T12:36:45.451Z,92.18
2022-12-03T12:37:20.762Z,70.75
2022-12-03T12:37:59.993Z,81.03
2022-12-03T12:38:33.188Z,84.70
2022-12-03T12:39:11.103Z,65.40
2022-12-03T12:39:45.878Z,50.90
2022-12-03T12:40:18.933Z,48.70
2022-12-03T12:40:53.669Z,60.22
2022-12-03T12:41:26.062Z,68.43
2022-12-03T12:41:59.054Z,59.05
2022-12-03T12:42:36.620Z,80.80
2022-12-03T12:43:23.491Z,89.85
2022-12-03T12:43:58.927Z,74.63
2022-12-03T12:44:31.000Z,84.03
2022-12-03T12:45:16.853Z,74.68
2022-12-03T12:45:49.902Z,67.05
2022-12-03T12:46:47.346Z,71.65
2022-12-03T12:47:17.901Z,74.28
2022-12-03T12:48:03.230Z,62.00
2022-12-03T12:48:35.540Z,58.67
2022-12-03T12:49:14.445Z,46.90
2022-12-03T12:49:51.600Z,59.75
2022-12-03T12:50:27.862Z,65.18
2022-12-03T12:51:06.465Z,85.03
2022-12-03T12:51:46.220Z,85.13
2022-12-03T12:52:18.349Z,57.75
2022-12-03T12:52:56.001Z,44.15
2022-12-03T12:53:33.455Z,86.53
2022-12-03T12:54:15.942Z,78.90
2022-12-03T12:54:48.072Z,60.28
2022-12-03T12:55:20.888Z,67.28
2022-12-03T12:55:59.210Z,117.15
2022-12-03T12:56:32.337Z,90.70
2022-12-03T12:57:15.698Z,71.90
2022-12-03T12:57:47.943Z,67.18
2022-12-03T12:58:23.202Z,66.88
2022-12-03T12:58:59.505Z,54.10
2022-12-03T12:59:31.884Z,63.47
2022-12-03T13:00:08.909Z,46.13
2022-12-03T13:00:41.797Z,43.50
2022-12-03T13:01:20.481Z,49.30
2022-12-03T13:01:55.679Z,53.75
2022-12-03T13:02:45.152Z,79.80
2022-12-03T13:03:21.560Z,67.82
2022-12-03T13:03:53.877Z,72.50
2022-12-03T13:04:33.202Z,81.85
2022-12-03T13:05:08.204Z,52.55
2022-12-03T13:05:45.145Z,100.88
2022-12-03T13:06:17.948Z,55.42
2022-12-03T13:06:56.090Z,50.17
2022-12-03T13:07:28.251Z,46.25
2022-12-03T13:08:08.858Z,59.28
2022-12-03T13:08:45.531Z,40.70
2022-12-03T13:09:24.625Z,61.63
2022-12-03T13:10:24.602Z,50.50
2022-12-03T13:11:00.676Z,23.10
2022-12-03T13:11:37.170Z,48.47